Time;durP1;ratioP1;P1;durP2;ratioP2;P2;SDS_P1;SDS_P2;PMS_P1;PMS_P2;Temp;Humidity;BMP_temperature;BMP_pressure;BME280_temperature;BME280_humidity;BME280_pressure;Samples;Min_cycle;Max_cycle;Signal;HPM_P1;HPM_P2
2023/12/10 00:01:14;;;;;;;25.47;4.40;;;;;;;18.88;57.88;99406.88;4936681;28;20434;-72
2023/12/10 00:03:39;;;;;;;24.60;4.33;;;;;;;18.93;57.28;99393.00;4975237;28;20211;-72
2023/12/10 00:06:05;;;;;;;23.67;4.93;;;;;;;18.90;57.90;99416.69;4935883;29;20260;-73
2023/12/10 00:08:31;;;;;;;19.93;4.83;;;;;;;18.93;57.82;99409.34;4966457;28;20183;-73
2023/12/10 00:10:56;;;;;;;19.37;4.87;;;;;;;18.86;57.16;99420.78;4951705;28;20234;-74
2023/12/10 00:13:22;;;;;;;27.13;4.00;;;;;;;18.84;57.48;99412.59;4934437;29;20179;-75
2023/12/10 00:15:47;;;;;;;15.13;4.00;;;;;;;18.85;56.77;99414.22;4950871;28;20191;-76
2023/12/10 00:18:13;;;;;;;15.93;3.50;;;;;;;18.87;57.05;99417.50;4948303;29;20183;-71
2023/12/10 00:20:38;;;;;;;27.63;5.50;;;;;;;18.85;56.90;99399.09;4948699;29;20280;-73
2023/12/10 00:23:04;;;;;;;17.43;4.30;;;;;;;18.85;56.85;99424.84;4952014;29;20191;-72
2023/12/10 00:25:31;;;;;;;20.53;4.07;;;;;;;18.85;56.51;99434.25;4927894;29;20559;-71
2023/12/10 00:27:58;;;;;;;22.03;3.83;;;;;;;18.85;56.63;99442.81;4966655;28;20186;-73
2023/12/10 00:30:25;;;;;;;16.07;3.90;;;;;;;18.85;56.82;99442.00;4951401;29;20498;-73
2023/12/10 00:32:51;;;;;;;13.73;4.07;;;;;;;18.75;56.48;99442.78;4930846;29;20491;-74
2023/12/10 00:35:16;;;;;;;18.87;4.07;;;;;;;18.76;56.99;99468.13;4927067;29;20462;-73
2023/12/10 00:37:42;;;;;;;14.17;4.07;;;;;;;18.73;56.89;99468.94;4916117;28;20191;-71
2023/12/10 00:40:09;;;;;;;9.67;3.27;;;;;;;18.75;56.12;99462.78;4954567;28;20222;-71
2023/12/10 00:42:34;;;;;;;22.67;4.50;;;;;;;18.72;56.30;99472.19;4935505;29;20217;-68
2023/12/10 00:45:00;;;;;;;13.93;3.90;;;;;;;18.71;56.20;99482.00;4931569;29;20451;-72
2023/12/10 00:47:25;;;;;;;19.67;3.90;;;;;;;18.74;56.43;99486.91;4952203;28;20198;-71
2023/12/10 00:49:51;;;;;;;16.50;3.63;;;;;;;18.77;56.49;99486.09;4925128;29;20273;-72
2023/12/10 00:52:16;;;;;;;13.57;3.53;;;;;;;18.72;56.54;99492.22;4919352;29;20631;-71
2023/12/10 00:54:41;;;;;;;17.90;3.60;;;;;;;18.73;56.61;99491.81;4916936;29;20196;-65
2023/12/10 00:57:07;;;;;;;11.67;3.70;;;;;;;18.75;56.70;99500.78;4935293;29;20304;-64
2023/12/10 00:59:32;;;;;;;15.10;3.70;;;;;;;18.75;56.53;99517.94;4935057;29;20610;-64
2023/12/10 01:01:58;;;;;;;14.33;3.40;;;;;;;18.76;56.40;99518.78;4932340;29;20187;-64
2023/12/10 01:04:23;;;;;;;17.63;3.60;;;;;;;18.74;56.67;99510.59;4935289;29;20175;-64
2023/12/10 01:06:49;;;;;;;21.07;4.03;;;;;;;18.74;57.23;99527.75;4934856;29;20234;-64
2023/12/10 01:09:15;;;;;;;17.23;4.50;;;;;;;18.72;56.98;99527.31;4934216;29;20788;-65
2023/12/10 01:11:41;;;;;;;11.50;3.40;;;;;;;18.71;57.30;99534.25;4918084;29;20194;-64
2023/12/10 01:14:06;;;;;;;21.13;3.70;;;;;;;18.71;57.36;99536.31;4947340;29;20164;-64
2023/12/10 01:16:32;;;;;;;8.77;3.47;;;;;;;18.70;57.47;99532.63;4917574;29;20436;-64
2023/12/10 01:18:57;;;;;;;16.87;3.40;;;;;;;18.69;57.12;99539.56;4944017;28;20183;-64
2023/12/10 01:21:22;;;;;;;24.17;4.23;;;;;;;18.72;57.12;99530.19;4933600;29;20175;-64
2023/12/10 01:23:54;;;;;;;15.10;4.17;;;;;;;18.68;57.16;99540.81;4932495;29;20242;-64
2023/12/10 01:26:19;;;;;;;17.30;3.23;;;;;;;18.68;57.38;99531.41;4936067;29;20175;-64
2023/12/10 01:28:45;;;;;;;14.23;3.50;;;;;;;18.68;57.50;99546.53;4940021;29;21081;-64
2023/12/10 01:31:10;;;;;;;14.00;3.00;;;;;;;18.67;57.39;99555.50;4918922;29;20934;-64
2023/12/10 01:33:36;;;;;;;9.43;3.60;;;;;;;18.67;57.36;99549.78;4933082;29;20286;-64
2023/12/10 01:36:01;;;;;;;12.93;3.13;;;;;;;18.68;57.12;99566.53;4916482;29;20191;-65
2023/12/10 01:38:27;;;;;;;18.93;3.80;;;;;;;18.67;57.39;99572.66;4918146;29;20219;-64
2023/12/10 01:40:52;;;;;;;11.97;3.37;;;;;;;18.66;56.86;99563.25;4916152;29;20242;-64
2023/12/10 01:43:18;;;;;;;10.20;3.20;;;;;;;18.66;57.20;99563.25;4932209;29;20218;-64
2023/12/10 01:45:49;;;;;;;18.53;3.13;;;;;;;18.64;57.41;99579.97;4945981;29;20191;-64
2023/12/10 01:48:15;;;;;;;13.47;3.17;;;;;;;18.65;57.30;99578.75;4934514;29;20187;-64
2023/12/10 01:50:40;;;;;;;18.97;4.07;;;;;;;18.64;57.38;99587.72;4931415;29;20493;-65
2023/12/10 01:53:08;;;;;;;16.23;2.97;;;;;;;18.64;57.62;99591.41;4934756;28;20446;-64
2023/12/10 01:55:33;;;;;;;12.70;3.70;;;;;;;18.62;57.32;99593.84;4950562;29;20175;-64
2023/12/10 01:57:58;;;;;;;8.43;2.47;;;;;;;18.64;57.31;99602.84;4965774;28;20418;-64
2023/12/10 02:00:39;;;;;;;8.23;2.43;;;;;;;18.63;57.75;99601.22;4921956;29;20256;-64
2023/12/10 02:03:05;;;;;;;12.50;3.53;;;;;;;18.63;57.76;99603.25;4946005;29;20190;-64
2023/12/10 02:05:30;;;;;;;8.77;2.83;;;;;;;18.64;57.14;99617.16;4935504;29;20471;-71
2023/12/10 02:07:56;;;;;;;13.77;3.60;;;;;;;18.63;57.07;99624.09;4939623;29;20891;-72
2023/12/10 02:10:21;;;;;;;7.77;2.93;;;;;;;18.61;57.84;99628.56;4918821;29;20175;-72
2023/12/10 02:12:47;;;;;;;10.30;3.20;;;;;;;18.62;57.07;99639.56;4934249;29;20227;-72
2023/12/10 02:15:12;;;;;;;9.53;3.00;;;;;;;18.61;57.89;99645.72;4923042;29;20198;-71
2023/12/10 02:17:38;;;;;;;9.87;3.30;;;;;;;18.63;57.35;99646.13;4946755;28;20428;-70
2023/12/10 02:20:05;;;;;;;9.20;2.67;;;;;;;18.61;57.63;99649.38;4926967;29;20239;-71
2023/12/10 02:22:31;;;;;;;9.20;3.07;;;;;;;18.59;57.29;99657.53;4913944;29;20168;-72
2023/12/10 02:24:58;;;;;;;11.30;2.77;;;;;;;18.61;57.06;99662.88;4914780;29;20434;-71
2023/12/10 02:27:24;;;;;;;8.90;2.27;;;;;;;18.57;57.20;99656.31;4932231;28;20184;-72
2023/12/10 02:29:49;;;;;;;12.23;3.30;;;;;;;18.57;57.07;99659.97;4914482;29;20463;-72
2023/12/10 02:32:15;;;;;;;11.00;3.30;;;;;;;18.58;57.41;99670.22;4922562;29;20917;-71
2023/12/10 02:34:41;;;;;;;10.20;2.83;;;;;;;18.57;57.67;99674.25;4931300;29;20203;-71
2023/12/10 02:37:06;;;;;;;8.43;2.63;;;;;;;18.57;57.49;99677.13;4922838;29;20179;-69
2023/12/10 02:39:31;;;;;;;12.60;3.47;;;;;;;18.56;57.43;99681.19;4960925;28;20207;-71
2023/12/10 02:41:57;;;;;;;8.23;2.80;;;;;;;18.57;57.37;99682.84;4948867;29;20539;-71
2023/12/10 02:44:22;;;;;;;9.00;2.67;;;;;;;18.57;57.29;99682.84;4917874;29;20947;-72
2023/12/10 02:46:48;;;;;;;12.53;3.20;;;;;;;18.59;57.16;99691.84;4917427;29;20198;-71
2023/12/10 02:49:13;;;;;;;8.90;3.20;;;;;;;18.58;57.37;99695.94;4914733;29;20287;-72
2023/12/10 02:51:39;;;;;;;10.47;3.20;;;;;;;18.55;57.06;99702.44;4915621;29;20285;-71
2023/12/10 02:54:04;;;;;;;7.77;2.87;;;;;;;18.59;57.08;99691.00;4917907;29;20186;-71
2023/12/10 02:56:29;;;;;;;12.00;3.83;;;;;;;18.56;57.54;99688.97;4949951;28;20249;-72
2023/12/10 02:58:55;;;;;;;6.87;2.63;;;;;;;18.56;57.14;99695.50;4910155;29;20248;-71
2023/12/10 03:01:20;;;;;;;14.37;3.27;;;;;;;18.55;57.16;99696.72;4932807;29;20187;-71
2023/12/10 03:03:46;;;;;;;11.53;2.90;;;;;;;18.54;57.50;99703.66;4932744;29;20179;-72
2023/12/10 03:06:11;;;;;;;4.80;1.90;;;;;;;18.53;57.04;99715.47;4936178;29;20258;-71
2023/12/10 03:08:37;;;;;;;7.83;2.50;;;;;;;18.52;57.16;99713.84;4913834;29;20932;-71
2023/12/10 03:11:02;;;;;;;9.30;3.00;;;;;;;18.53;57.14;99712.63;4930015;29;20187;-72
2023/12/10 03:13:28;;;;;;;10.37;2.60;;;;;;;18.52;57.38;99708.94;4930982;29;20188;-72
2023/12/10 03:15:53;;;;;;;14.90;3.30;;;;;;;18.51;57.69;99707.28;4917045;29;20210;-64
2023/12/10 03:18:18;;;;;;;10.13;3.03;;;;;;;18.52;57.14;99700.34;4915981;29;20597;-64
2023/12/10 03:20:44;;;;;;;8.30;3.00;;;;;;;18.52;57.37;99697.50;4915020;29;20216;-64
2023/12/10 03:23:09;;;;;;;6.90;2.73;;;;;;;18.50;57.32;99713.41;4916801;29;20203;-65
2023/12/10 03:25:35;;;;;;;10.30;2.53;;;;;;;18.48;57.33;99710.13;4920445;29;20190;-64
2023/12/10 03:28:00;;;;;;;7.43;2.50;;;;;;;18.52;57.32;99731.78;4950718;29;20179;-64
2023/12/10 03:30:26;;;;;;;7.33;2.63;;;;;;;18.52;57.39;99726.06;4934229;29;20722;-64
2023/12/10 03:32:51;;;;;;;10.00;2.20;;;;;;;18.51;57.15;99723.63;4946654;28;20186;-65
2023/12/10 03:35:16;;;;;;;8.73;2.80;;;;;;;18.50;56.88;99728.53;4962108;28;20578;-65
2023/12/10 03:37:42;;;;;;;10.20;2.90;;;;;;;18.49;57.52;99715.44;4934359;29;20183;-64
2023/12/10 03:40:08;;;;;;;7.60;3.10;;;;;;;18.48;57.11;99736.69;4936911;29;20210;-65
2023/12/10 03:42:33;;;;;;;8.27;2.70;;;;;;;18.49;57.36;99744.03;4968410;28;20183;-65
2023/12/10 03:44:59;;;;;;;7.57;2.60;;;;;;;18.45;57.32;99751.75;4926461;29;20644;-64
2023/12/10 03:47:24;;;;;;;8.33;2.40;;;;;;;18.48;57.36;99748.13;4936074;29;20555;-65
2023/12/10 03:49:49;;;;;;;7.13;2.60;;;;;;;18.48;57.44;99759.56;4932652;29;20191;-64
2023/12/10 03:52:15;;;;;;;6.20;2.73;;;;;;;18.48;57.25;99764.44;4932442;29;20296;-65
2023/12/10 03:54:40;;;;;;;6.37;2.37;;;;;;;18.48;57.08;99770.16;4933656;28;20183;-65
2023/12/10 03:57:06;;;;;;;6.70;2.40;;;;;;;18.50;57.04;99768.53;4949349;29;20194;-64
2023/12/10 03:59:31;;;;;;;7.30;2.53;;;;;;;18.48;57.13;99779.56;4935769;29;20211;-64
2023/12/10 04:01:57;;;;;;;7.17;2.60;;;;;;;18.49;57.10;99786.91;4947498;29;20250;-64
2023/12/10 04:04:22;;;;;;;10.10;2.53;;;;;;;18.46;57.26;99796.25;4935623;29;20191;-64
2023/12/10 04:06:47;;;;;;;6.67;2.20;;;;;;;18.46;57.16;99796.25;4952116;29;20186;-64
2023/12/10 04:09:13;;;;;;;6.20;2.20;;;;;;;18.50;57.30;99802.00;4946601;28;20183;-64
2023/12/10 04:11:39;;;;;;;5.57;2.10;;;;;;;18.52;56.63;99811.03;4917542;29;20192;-64
2023/12/10 04:14:09;;;;;;;7.10;2.20;;;;;;;18.50;57.22;99820.00;4931035;29;20196;-65
2023/12/10 04:16:34;;;;;;;9.17;2.60;;;;;;;18.50;56.91;99822.84;4949276;29;20219;-64
2023/12/10 04:19:00;;;;;;;5.30;2.67;;;;;;;18.51;57.16;99820.81;4944107;29;20522;-64
2023/12/10 04:21:25;;;;;;;9.87;2.83;;;;;;;18.51;56.88;99826.53;4937015;29;20167;-64
2023/12/10 04:23:50;;;;;;;7.87;2.87;;;;;;;18.51;57.09;99823.69;4927039;29;20188;-64
2023/12/10 04:26:16;;;;;;;6.30;2.20;;;;;;;18.50;57.22;99830.59;4934582;29;20211;-64
2023/12/10 04:28:42;;;;;;;7.00;2.20;;;;;;;18.53;56.62;99829.81;4918415;29;20193;-65
2023/12/10 04:31:08;;;;;;;9.90;2.63;;;;;;;18.51;56.95;99838.78;4936387;29;20182;-64
2023/12/10 04:33:33;;;;;;;6.87;2.13;;;;;;;18.51;56.76;99837.97;4934542;29;20450;-64
2023/12/10 04:35:59;;;;;;;9.73;2.27;;;;;;;18.51;56.52;99849.41;4936122;29;20591;-64
2023/12/10 04:38:25;;;;;;;6.60;2.43;;;;;;;18.53;56.95;99847.81;4919713;29;20179;-64
2023/12/10 04:40:51;;;;;;;7.70;2.20;;;;;;;18.53;57.04;99858.41;4964173;28;20466;-65
2023/12/10 04:43:16;;;;;;;6.47;2.13;;;;;;;18.50;56.79;99848.56;4952513;29;20618;-65
2023/12/10 04:45:41;;;;;;;4.57;1.80;;;;;;;18.48;56.87;99845.31;4931738;29;20199;-64
2023/12/10 04:48:07;;;;;;;6.07;2.30;;;;;;;18.48;56.71;99838.75;4936004;29;20198;-64
2023/12/10 04:50:32;;;;;;;8.00;2.20;;;;;;;18.48;56.69;99842.44;4953564;28;20187;-65
2023/12/10 04:52:58;;;;;;;11.80;2.60;;;;;;;18.47;56.90;99846.50;4963887;28;20199;-65
2023/12/10 04:55:23;;;;;;;5.63;2.20;;;;;;;18.45;57.04;99846.06;4930571;29;20195;-64
2023/12/10 04:57:49;;;;;;;4.63;1.90;;;;;;;18.49;57.19;99846.94;4932972;29;20179;-64
2023/12/10 05:00:15;;;;;;;9.07;2.47;;;;;;;18.45;57.11;99846.06;4931684;29;20208;-64
2023/12/10 05:02:41;;;;;;;4.33;2.20;;;;;;;18.47;56.94;99843.63;4950035;29;20222;-64
2023/12/10 05:05:08;;;;;;;6.57;2.13;;;;;;;18.47;57.18;99855.06;4935654;29;20411;-65
2023/12/10 05:07:34;;;;;;;5.03;2.47;;;;;;;18.44;57.21;99847.28;4933189;29;20188;-64
2023/12/10 05:09:59;;;;;;;5.13;2.00;;;;;;;18.46;57.17;99859.13;4900399;29;20534;-65
2023/12/10 05:12:25;;;;;;;8.67;2.57;;;;;;;18.46;57.16;99855.47;4932275;29;20183;-65
2023/12/10 05:14:50;;;;;;;6.80;2.33;;;;;;;18.46;57.10;99855.47;4932233;29;20184;-64
2023/12/10 05:17:16;;;;;;;4.47;2.00;;;;;;;18.46;57.11;99846.91;4936034;29;20187;-65
2023/12/10 05:19:41;;;;;;;8.90;3.20;;;;;;;18.47;57.00;99852.22;4935285;29;20207;-65
2023/12/10 05:22:06;;;;;;;5.60;1.97;;;;;;;18.46;56.93;99846.91;4919481;29;20767;-65
2023/12/10 05:24:32;;;;;;;4.57;1.80;;;;;;;18.44;56.62;99844.44;4951956;29;20182;-64
2023/12/10 05:26:57;;;;;;;9.10;2.50;;;;;;;18.44;56.91;99853.00;4925630;29;20198;-65
2023/12/10 05:29:23;;;;;;;7.37;2.30;;;;;;;18.44;57.44;99852.16;4932305;29;20227;-64
2023/12/10 05:31:48;;;;;;;5.40;2.20;;;;;;;18.45;56.87;99857.50;4935198;29;20765;-65
2023/12/10 05:34:14;;;;;;;5.70;2.27;;;;;;;18.44;57.09;99869.31;4917392;29;21110;-65
2023/12/10 05:36:39;;;;;;;8.07;2.03;;;;;;;18.46;57.38;99875.50;4915185;29;20195;-65
2023/12/10 05:39:05;;;;;;;8.27;2.20;;;;;;;18.45;56.99;99880.38;4916266;29;20180;-65
2023/12/10 05:41:30;;;;;;;5.83;2.23;;;;;;;18.44;57.15;99883.63;4918124;29;20182;-64
2023/12/10 05:43:55;;;;;;;5.57;2.20;;;;;;;18.44;56.98;99887.31;4949977;29;20560;-64
2023/12/10 05:46:21;;;;;;;5.87;2.60;;;;;;;18.48;57.02;99901.63;4943660;29;20195;-65
2023/12/10 05:48:46;;;;;;;6.87;1.90;;;;;;;18.48;56.81;99898.78;4939426;28;20701;-65
2023/12/10 05:51:12;;;;;;;6.30;2.20;;;;;;;18.47;56.87;99897.94;4950017;29;20902;-65
2023/12/10 05:53:37;;;;;;;6.67;2.80;;;;;;;18.48;57.02;99901.63;4933931;29;20551;-65
2023/12/10 05:56:03;;;;;;;4.30;2.07;;;;;;;18.50;56.67;99914.31;4930905;29;20199;-65
2023/12/10 05:58:28;;;;;;;6.70;1.90;;;;;;;18.50;56.83;99919.19;4901060;29;20183;-65
2023/12/10 06:00:53;;;;;;;7.40;2.40;;;;;;;18.48;56.92;99919.63;4947125;28;20210;-65
2023/12/10 06:03:19;;;;;;;6.40;2.20;;;;;;;18.51;56.73;99927.41;4933019;29;20194;-64
2023/12/10 06:05:44;;;;;;;6.50;2.30;;;;;;;18.52;56.71;99933.94;4950839;28;20234;-65
2023/12/10 06:08:10;;;;;;;5.50;1.90;;;;;;;18.49;56.65;99918.41;4950176;29;20187;-65
2023/12/10 06:10:36;;;;;;;7.03;2.03;;;;;;;18.48;56.83;99948.22;4932626;29;20192;-65
2023/12/10 06:13:02;;;;;;;5.60;1.57;;;;;;;18.51;56.54;99955.97;4932626;29;20178;-64
2023/12/10 06:15:28;;;;;;;5.17;1.90;;;;;;;18.47;56.74;99957.97;4919332;29;20562;-65
2023/12/10 06:17:53;;;;;;;6.60;1.90;;;;;;;18.52;56.60;99960.47;4916172;29;20423;-65
2023/12/10 06:20:19;;;;;;;6.17;1.83;;;;;;;18.52;55.81;99971.91;4934434;29;20206;-64
2023/12/10 06:22:44;;;;;;;5.43;1.80;;;;;;;18.53;56.75;99973.59;4951699;29;20250;-65
2023/12/10 06:25:10;;;;;;;5.10;1.63;;;;;;;18.49;56.62;99972.72;4943397;29;20538;-65
2023/12/10 06:27:35;;;;;;;4.07;1.80;;;;;;;18.50;57.21;99974.34;4918356;29;20595;-65
2023/12/10 06:30:00;;;;;;;5.83;1.90;;;;;;;18.54;56.19;99982.97;4915344;29;20686;-65
2023/12/10 06:32:26;;;;;;;5.37;2.27;;;;;;;18.49;56.98;99992.72;4928210;29;20671;-65
2023/12/10 06:34:52;;;;;;;4.33;1.80;;;;;;;18.49;56.93;99995.59;4930200;29;20297;-65
2023/12/10 06:37:17;;;;;;;7.33;2.77;;;;;;;18.49;56.71;99994.75;4939654;29;20179;-65
2023/12/10 06:39:43;;;;;;;6.87;2.10;;;;;;;18.47;56.60;100003.69;4929566;29;20499;-65
2023/12/10 06:42:09;;;;;;;4.13;1.87;;;;;;;18.47;56.72;100002.91;4932882;29;20884;-65
2023/12/10 06:44:36;;;;;;;3.77;1.60;;;;;;;18.47;57.04;99997.19;4915630;29;20458;-65
2023/12/10 06:47:01;;;;;;;5.93;2.43;;;;;;;18.47;56.81;100008.63;4917275;29;20239;-65
2023/12/10 06:49:27;;;;;;;6.30;2.00;;;;;;;18.46;56.59;100018.41;4936049;28;20443;-65
2023/12/10 06:51:52;;;;;;;4.80;1.83;;;;;;;18.50;56.36;100002.94;4913808;29;20220;-65
2023/12/10 06:54:17;;;;;;;4.53;2.50;;;;;;;18.46;57.14;100007.78;4898726;29;20183;-64
2023/12/10 06:56:43;;;;;;;4.23;2.10;;;;;;;18.47;56.60;100003.69;4931184;29;20225;-65
2023/12/10 06:59:08;;;;;;;4.60;2.00;;;;;;;18.50;56.83;100008.66;4949695;29;20829;-65
2023/12/10 07:01:35;;;;;;;4.77;2.07;;;;;;;18.48;57.27;100007.41;4930472;29;20183;-65
2023/12/10 07:04:00;;;;;;;5.20;2.13;;;;;;;18.46;56.81;100019.22;4931253;29;20187;-65
2023/12/10 07:06:26;;;;;;;4.20;1.80;;;;;;;18.47;56.71;100014.34;4951231;29;20431;-65
2023/12/10 07:08:51;;;;;;;5.80;1.90;;;;;;;18.47;56.60;100020.84;4936208;29;20635;-65
2023/12/10 07:11:17;;;;;;;4.60;1.83;;;;;;;18.47;56.90;100029.44;4951304;29;20187;-64
2023/12/10 07:13:42;;;;;;;4.27;1.63;;;;;;;18.47;56.94;100034.34;4937844;29;20187;-64
2023/12/10 07:16:08;;;;;;;3.60;1.40;;;;;;;18.47;56.54;100035.16;4954926;29;20179;-65
2023/12/10 07:18:33;;;;;;;5.47;2.00;;;;;;;18.48;56.60;100033.13;4953482;29;20193;-64
2023/12/10 07:20:59;;;;;;;3.60;1.70;;;;;;;18.47;56.80;100037.19;4936338;29;20219;-64
2023/12/10 07:23:25;;;;;;;5.93;1.93;;;;;;;18.50;56.39;100050.69;4934513;29;20201;-64
2023/12/10 07:25:50;;;;;;;5.90;1.80;;;;;;;18.50;56.72;100047.84;4934327;29;20190;-65
2023/12/10 07:28:16;;;;;;;4.97;1.60;;;;;;;18.49;56.71;100060.50;4947149;29;20184;-64
2023/12/10 07:30:42;;;;;;;4.13;2.00;;;;;;;18.49;56.33;100051.91;4936204;29;20238;-64
2023/12/10 07:33:07;;;;;;;5.40;2.00;;;;;;;18.48;56.70;100068.25;4934827;28;20440;-65
2023/12/10 07:35:32;;;;;;;3.73;1.70;;;;;;;18.48;56.71;100073.97;4931544;29;20662;-65
2023/12/10 07:37:58;;;;;;;4.80;2.27;;;;;;;18.50;56.30;100065.84;4935415;29;20174;-65
2023/12/10 07:40:23;;;;;;;4.27;1.50;;;;;;;18.51;56.18;100072.38;4943930;29;20199;-64
2023/12/10 07:42:49;;;;;;;5.57;1.70;;;;;;;18.52;56.44;100066.25;4916894;29;20206;-65
2023/12/10 07:45:15;;;;;;;3.87;1.60;;;;;;;18.54;56.24;100063.00;4935076;29;20187;-65
2023/12/10 07:47:40;;;;;;;4.83;2.10;;;;;;;18.51;56.40;100061.75;4935975;29;20206;-64
2023/12/10 07:50:06;;;;;;;5.10;2.27;;;;;;;18.52;56.87;100062.59;4935392;29;20186;-65
2023/12/10 07:52:32;;;;;;;3.13;1.43;;;;;;;18.50;56.77;100065.84;4936997;29;20191;-65
2023/12/10 07:54:57;;;;;;;7.00;1.83;;;;;;;18.50;56.39;100057.25;4936238;29;20179;-65
2023/12/10 07:57:22;;;;;;;4.73;1.60;;;;;;;18.51;56.41;100060.94;4926063;29;20209;-65
2023/12/10 07:59:48;;;;;;;3.63;1.60;;;;;;;18.50;56.63;100060.13;4953526;29;20211;-65
2023/12/10 08:02:13;;;;;;;4.40;1.77;;;;;;;18.51;56.83;100061.75;4966547;28;20198;-65
2023/12/10 08:04:39;;;;;;;3.90;1.57;;;;;;;18.52;56.39;100065.44;4935336;29;20163;-65
2023/12/10 08:07:04;;;;;;;3.77;1.47;;;;;;;18.51;56.32;100073.19;4950511;29;20219;-65
2023/12/10 08:09:30;;;;;;;5.00;1.63;;;;;;;18.52;56.25;100066.25;4936464;29;20194;-65
2023/12/10 08:11:55;;;;;;;2.63;1.40;;;;;;;18.54;56.77;100077.31;4924408;29;20191;-64
2023/12/10 08:14:25;;;;;;;4.13;1.67;;;;;;;18.54;56.58;100080.16;4901860;29;20195;-64
2023/12/10 08:16:51;;;;;;;4.33;1.80;;;;;;;18.53;56.99;100087.09;4920593;29;20277;-65
2023/12/10 08:19:16;;;;;;;5.63;2.30;;;;;;;18.56;56.09;100086.34;4925969;29;20874;-65
2023/12/10 08:21:43;;;;;;;3.10;1.47;;;;;;;18.53;56.89;100093.66;4917583;29;20565;-65
2023/12/10 08:24:08;;;;;;;5.00;1.50;;;;;;;18.55;56.33;100094.09;4936672;29;20199;-65
2023/12/10 08:26:34;;;;;;;4.80;1.70;;;;;;;18.52;56.99;100100.56;4916710;29;20428;-65
2023/12/10 08:28:59;;;;;;;3.70;1.77;;;;;;;18.50;56.68;100100.13;4919057;29;20615;-64
2023/12/10 08:31:25;;;;;;;4.83;1.70;;;;;;;18.54;56.52;100112.44;4937238;29;20195;-64
2023/12/10 08:33:51;;;;;;;6.10;1.77;;;;;;;18.50;56.87;100111.56;4933503;29;20547;-65
2023/12/10 08:36:16;;;;;;;4.57;2.03;;;;;;;18.50;56.85;100108.72;4903026;29;20263;-64
2023/12/10 08:38:41;;;;;;;3.20;1.60;;;;;;;18.52;56.58;100120.56;4930926;29;20195;-64
2023/12/10 08:41:08;;;;;;;5.30;1.63;;;;;;;18.53;56.71;100115.69;4924328;29;20215;-64
2023/12/10 08:43:33;;;;;;;3.40;1.30;;;;;;;18.49;56.57;100127.06;4949670;29;20266;-65
2023/12/10 08:45:59;;;;;;;3.67;1.67;;;;;;;18.53;56.67;100116.53;4919091;29;20423;-64
2023/12/10 08:48:25;;;;;;;6.03;2.13;;;;;;;18.52;56.76;100108.34;4920872;29;20193;-64
2023/12/10 08:50:51;;;;;;;3.43;1.47;;;;;;;18.53;57.15;100107.94;4948678;28;20175;-65
2023/12/10 08:53:16;;;;;;;7.33;1.73;;;;;;;18.54;56.57;100103.03;4901393;29;20912;-65
2023/12/10 08:55:42;;;;;;;4.03;1.53;;;;;;;18.49;56.95;100109.94;4936476;29;20179;-64
2023/12/10 08:58:07;;;;;;;4.10;1.40;;;;;;;18.53;56.64;100118.56;4916889;29;20176;-65
2023/12/10 09:00:33;;;;;;;3.40;1.70;;;;;;;18.52;56.57;100111.19;4918060;29;20566;-64
2023/12/10 09:02:58;;;;;;;5.17;1.70;;;;;;;18.56;56.21;100126.38;4951555;29;20186;-65
2023/12/10 09:05:24;;;;;;;3.20;1.40;;;;;;;18.54;56.74;100117.34;4935560;29;20190;-71
2023/12/10 09:07:50;;;;;;;3.83;1.50;;;;;;;18.54;56.54;100128.75;4935765;29;20542;-71
2023/12/10 09:10:15;;;;;;;5.43;1.83;;;;;;;18.56;56.43;100126.38;4930586;29;20243;-71
2023/12/10 09:12:41;;;;;;;4.43;1.60;;;;;;;18.53;56.67;100129.97;4932417;29;20415;-71
2023/12/10 09:15:07;;;;;;;3.60;1.67;;;;;;;18.55;56.49;100125.53;4932679;29;20247;-72
2023/12/10 09:17:32;;;;;;;4.00;1.90;;;;;;;18.56;56.10;100130.03;4928619;29;20195;-71
2023/12/10 09:19:58;;;;;;;2.90;1.70;;;;;;;18.56;56.23;100129.22;4933006;29;20470;-71
2023/12/10 09:22:23;;;;;;;3.10;1.27;;;;;;;18.57;56.75;100139.44;4927083;29;20198;-71
2023/12/10 09:24:49;;;;;;;3.43;1.77;;;;;;;18.56;56.04;100144.31;4949345;29;20175;-70
2023/12/10 09:27:14;;;;;;;5.30;1.60;;;;;;;18.58;56.08;100141.94;4917548;29;20529;-71
2023/12/10 09:29:41;;;;;;;7.80;1.70;;;;;;;18.56;56.15;100146.38;4934891;29;20227;-71
2023/12/10 09:32:07;;;;;;;5.80;1.80;;;;;;;18.56;56.29;100149.25;4922784;29;20812;-71
2023/12/10 09:34:33;;;;;;;13.23;2.90;;;;;;;18.22;52.81;100142.50;4936831;29;20483;-71
2023/12/10 09:36:58;;;;;;;12.43;3.83;;;;;;;18.00;51.49;100143.38;4933212;29;20427;-73
2023/12/10 09:39:24;;;;;;;13.20;3.10;;;;;;;18.16;52.13;100146.91;4934350;29;20431;-73
2023/12/10 09:41:50;;;;;;;10.90;3.40;;;;;;;18.36;51.64;100144.84;4950158;28;20239;-71
2023/12/10 09:44:15;;;;;;;13.13;3.20;;;;;;;18.36;52.82;100148.50;4923390;29;20176;-72
2023/12/10 09:46:41;;;;;;;13.67;3.10;;;;;;;18.43;52.66;100157.22;4935929;29;20194;-72
2023/12/10 09:49:06;;;;;;;19.73;4.73;;;;;;;18.70;52.94;100156.00;4928135;29;20183;-73
2023/12/10 09:51:31;;;;;;;18.77;5.10;;;;;;;18.74;53.43;100151.16;4919067;29;20175;-72
2023/12/10 09:53:57;;;;;;;81.63;21.40;;;;;;;18.87;56.00;100146.81;4954029;29;20182;-72
2023/12/10 09:56:22;;;;;;;35.40;9.53;;;;;;;18.96;55.14;100138.00;4952859;29;20187;-73
2023/12/10 09:58:48;;;;;;;29.07;8.23;;;;;;;19.14;56.21;100137.00;4965525;28;20518;-73
2023/12/10 10:01:13;;;;;;;28.33;8.10;;;;;;;19.27;55.24;100140.47;4979773;28;20203;-73
2023/12/10 10:03:40;;;;;;;26.50;6.97;;;;;;;19.39;57.12;100143.06;4904442;29;20172;-72
2023/12/10 10:06:05;;;;;;;43.80;12.17;;;;;;;19.28;58.98;100151.53;4924617;29;20994;-77
2023/12/10 10:08:31;;;;;;;27.70;9.20;;;;;;;19.12;57.65;100148.00;4968451;28;20474;-74
2023/12/10 10:10:57;;;;;;;26.20;6.90;;;;;;;18.99;58.08;100152.34;4946484;28;20183;-72
2023/12/10 10:13:23;;;;;;;29.43;8.47;;;;;;;18.97;56.65;100148.22;4931217;29;20750;-71
2023/12/10 10:15:48;;;;;;;30.27;7.93;;;;;;;19.00;56.11;100159.69;4940529;28;20446;-67
2023/12/10 10:18:14;;;;;;;33.73;7.47;;;;;;;19.00;55.69;100167.44;4920069;29;20186;-68
2023/12/10 10:20:41;;;;;;;23.50;7.17;;;;;;;19.01;55.40;100161.34;4922806;28;20202;-68
2023/12/10 10:23:08;;;;;;;28.17;6.47;;;;;;;19.04;54.68;100162.59;4934995;29;20780;-67
2023/12/10 10:25:33;;;;;;;19.53;5.47;;;;;;;19.06;54.86;100155.28;4932143;29;20430;-69
2023/12/10 10:27:59;;;;;;;16.90;5.40;;;;;;;19.03;55.29;100153.22;4927573;28;20954;-66
2023/12/10 10:30:24;;;;;;;19.30;4.90;;;;;;;19.04;55.17;100166.31;4963934;28;20219;-64
2023/12/10 10:32:50;;;;;;;19.73;5.40;;;;;;;19.01;54.43;100143.38;4954896;28;20232;-64
2023/12/10 10:35:15;;;;;;;21.60;5.20;;;;;;;19.01;54.35;100149.91;4940795;29;20207;-65
2023/12/10 10:37:42;;;;;;;16.80;5.83;;;;;;;18.98;54.75;100153.56;4936395;29;20195;-64
2023/12/10 10:40:08;;;;;;;18.03;4.97;;;;;;;19.05;54.28;100139.31;4952323;28;20195;-65
2023/12/10 10:42:33;;;;;;;16.00;4.93;;;;;;;19.04;55.16;100143.41;4938444;28;20944;-66
2023/12/10 10:44:59;;;;;;;17.30;4.50;;;;;;;19.06;54.91;100143.03;4931208;29;20314;-66
2023/12/10 10:47:25;;;;;;;14.13;4.40;;;;;;;19.11;54.94;100154.13;4951217;28;20191;-67
2023/12/10 10:49:55;;;;;;;15.43;4.87;;;;;;;19.08;54.94;100141.44;4941821;28;20190;-68
2023/12/10 10:52:22;;;;;;;17.23;4.90;;;;;;;19.33;54.97;100139.75;4916927;29;20190;-67
2023/12/10 10:54:48;;;;;;;18.53;4.60;;;;;;;19.33;55.12;100134.00;4939101;29;20438;-68
2023/12/10 10:57:27;;;;;;;18.67;5.10;;;;;;;19.44;55.13;100140.69;4942570;28;20789;-67
2023/12/10 10:59:52;;;;;;;18.17;4.97;;;;;;;19.43;55.44;100130.47;4952585;28;20856;-67
2023/12/10 11:02:18;;;;;;;18.37;5.50;;;;;;;19.44;55.43;100126.38;4956395;28;20435;-67
2023/12/10 11:04:45;;;;;;;16.53;4.80;;;;;;;19.39;55.36;100114.44;4973339;28;20985;-67
2023/12/10 11:07:10;;;;;;;24.33;6.23;;;;;;;19.26;57.25;100111.00;4967106;28;20805;-67
2023/12/10 11:10:01;;;;;;;21.80;5.03;;;;;;;19.23;56.16;100105.25;4927684;28;20431;-68
2023/12/10 11:12:39;;;;;;;17.47;4.70;;;;;;;19.26;56.69;100105.28;4918996;29;20218;-67
2023/12/10 11:15:04;;;;;;;18.97;5.37;;;;;;;19.28;56.42;100102.03;4946972;29;20482;-67
2023/12/10 11:17:30;;;;;;;18.53;4.50;;;;;;;19.25;56.25;100095.06;4935558;29;20806;-68
2023/12/10 11:19:58;;;;;;;13.60;4.33;;;;;;;19.27;56.50;100088.94;4916905;29;20207;-68